Time;durP1;ratioP1;P1;durP2;ratioP2;P2;SDS_P1;SDS_P2;PMS_P1;PMS_P2;Temp;Humidity;BMP_temperature;BMP_pressure;BME280_temperature;BME280_humidity;BME280_pressure;Samples;Min_cycle;Max_cycle;Signal;HPM_P1;HPM_P2
2022/03/22 00:00:00;;;;;;;28.8;25.6;;;;;;;10.7;100.0;102780;;;;
2022/03/22 00:01:00;;;;;;;28.8;25.6;;;;;;;10.8;100.0;102780;;;;
2022/03/22 00:02:01;;;;;;;28.8;25.6;;;;;;;10.8;100.0;102780;;;;
2022/03/22 00:03:00;;;;;;;28.8;25.6;;;;;;;10.8;100.0;102780;;;;
2022/03/22 00:04:02;;;;;;;28.8;25.6;;;;;;;10.8;100.0;102780;;;;
2022/03/22 00:05:00;;;;;;;28.8;25.6;;;;;;;10.7;100.0;102780;;;;
2022/03/22 00:06:00;;;;;;;28.8;25.6;;;;;;;10.7;100.0;102780;;;;
2022/03/22 00:07:00;;;;;;;28.8;25.6;;;;;;;10.7;100.0;102780;;;;
2022/03/22 00:08:01;;;;;;;28.8;25.6;;;;;;;10.7;100.0;102780;;;;
2022/03/22 00:09:00;;;;;;;28.8;25.6;;;;;;;10.6;100.0;102780;;;;
2022/03/22 00:10:00;;;;;;;28.7;25.6;;;;;;;10.6;100.0;102780;;;;
2022/03/22 00:11:00;;;;;;;28.7;25.6;;;;;;;10.7;100.0;102780;;;;
2022/03/22 00:12:00;;;;;;;28.7;25.6;;;;;;;10.7;100.0;102780;;;;
2022/03/22 00:13:00;;;;;;;28.7;25.6;;;;;;;10.6;100.0;102780;;;;
2022/03/22 00:14:00;;;;;;;28.7;25.6;;;;;;;10.6;100.0;102780;;;;
2022/03/22 00:15:10;;;;;;;28.7;25.6;;;;;;;10.7;100.0;102780;;;;
2022/03/22 00:16:12;;;;;;;28.7;25.6;;;;;;;10.7;100.0;102780;;;;
2022/03/22 00:17:10;;;;;;;28.7;25.6;;;;;;;10.6;100.0;102780;;;;
2022/03/22 00:18:00;;;;;;;28.7;25.6;;;;;;;10.6;100.0;102780;;;;
2022/03/22 00:19:00;;;;;;;28.7;25.6;;;;;;;10.5;100.0;102780;;;;
2022/03/22 00:20:00;;;;;;;28.7;25.6;;;;;;;10.5;100.0;102780;;;;
2022/03/22 00:21:00;;;;;;;28.7;25.6;;;;;;;10.5;100.0;102780;;;;
2022/03/22 00:22:02;;;;;;;28.7;25.6;;;;;;;10.5;100.0;102780;;;;
2022/03/22 00:23:00;;;;;;;28.7;25.6;;;;;;;10.5;100.0;102790;;;;
2022/03/22 00:24:01;;;;;;;28.7;25.6;;;;;;;10.5;100.0;102790;;;;
2022/03/22 00:25:00;;;;;;;28.7;25.6;;;;;;;10.5;100.0;102780;;;;
2022/03/22 00:26:00;;;;;;;28.7;25.6;;;;;;;10.5;100.0;102780;;;;
2022/03/22 00:27:00;;;;;;;28.7;25.6;;;;;;;10.5;100.0;102780;;;;
2022/03/22 00:28:01;;;;;;;28.7;25.6;;;;;;;10.5;100.0;102780;;;;
2022/03/22 00:29:03;;;;;;;28.7;25.6;;;;;;;10.4;100.0;102780;;;;
2022/03/22 00:30:00;;;;;;;29.8;26.6;;;;;;;10.4;100.0;102780;;;;
2022/03/22 00:31:00;;;;;;;29.8;26.6;;;;;;;10.4;100.0;102780;;;;
2022/03/22 00:32:00;;;;;;;29.8;26.6;;;;;;;10.4;100.0;102780;;;;
2022/03/22 00:33:01;;;;;;;29.8;26.6;;;;;;;10.4;100.0;102780;;;;
2022/03/22 00:34:00;;;;;;;29.8;26.6;;;;;;;10.4;100.0;102780;;;;
2022/03/22 00:35:00;;;;;;;29.8;26.6;;;;;;;10.4;100.0;102790;;;;
2022/03/22 00:36:00;;;;;;;29.8;26.6;;;;;;;10.4;100.0;102790;;;;
2022/03/22 00:37:00;;;;;;;29.8;26.6;;;;;;;10.4;100.0;102790;;;;
2022/03/22 00:38:00;;;;;;;29.8;26.6;;;;;;;10.4;100.0;102790;;;;
2022/03/22 00:39:02;;;;;;;29.8;26.6;;;;;;;10.4;100.0;102790;;;;
2022/03/22 00:40:02;;;;;;;29.8;26.6;;;;;;;10.4;100.0;102790;;;;
2022/03/22 00:41:00;;;;;;;29.8;26.6;;;;;;;10.4;100.0;102790;;;;
2022/03/22 00:42:00;;;;;;;29.8;26.6;;;;;;;10.4;100.0;102790;;;;
2022/03/22 00:43:00;;;;;;;29.8;26.6;;;;;;;10.4;100.0;102790;;;;
2022/03/22 00:44:00;;;;;;;29.8;26.6;;;;;;;10.4;100.0;102790;;;;
2022/03/22 00:45:01;;;;;;;29.8;26.6;;;;;;;10.2;100.0;102790;;;;
2022/03/22 00:46:01;;;;;;;29.8;26.6;;;;;;;10.2;100.0;102790;;;;
2022/03/22 00:47:00;;;;;;;29.8;26.6;;;;;;;10.2;100.0;102790;;;;
2022/03/22 00:48:01;;;;;;;29.8;26.6;;;;;;;10.2;100.0;102790;;;;
2022/03/22 00:49:02;;;;;;;29.8;26.6;;;;;;;10.1;100.0;102790;;;;
2022/03/22 00:50:00;;;;;;;29.5;25.7;;;;;;;10.1;100.0;102790;;;;
2022/03/22 00:51:00;;;;;;;29.5;25.7;;;;;;;10.2;100.0;102790;;;;
2022/03/22 00:52:01;;;;;;;29.5;25.7;;;;;;;10.2;100.0;102790;;;;
2022/03/22 00:53:00;;;;;;;29.5;25.7;;;;;;;10.1;100.0;102790;;;;
2022/03/22 00:54:02;;;;;;;29.5;25.7;;;;;;;10.1;100.0;102790;;;;
2022/03/22 00:55:00;;;;;;;29.5;25.7;;;;;;;10.1;100.0;102790;;;;
2022/03/22 00:56:01;;;;;;;29.5;25.7;;;;;;;10.1;100.0;102790;;;;
2022/03/22 00:57:00;;;;;;;29.5;25.7;;;;;;;10.1;100.0;102790;;;;
2022/03/22 00:58:00;;;;;;;29.5;25.7;;;;;;;10.1;100.0;102790;;;;
2022/03/22 01:00:01;;;;;;;29.5;25.7;;;;;;;10.0;100.0;102790;;;;
2022/03/22 01:01:01;;;;;;;29.5;25.7;;;;;;;10.0;100.0;102800;;;;
2022/03/22 01:02:00;;;;;;;29.5;25.7;;;;;;;10.0;100.0;102800;;;;
2022/03/22 01:03:01;;;;;;;29.5;25.7;;;;;;;10.0;100.0;102790;;;;
2022/03/22 01:04:00;;;;;;;29.5;25.7;;;;;;;10.0;100.0;102790;;;;
2022/03/22 01:05:04;;;;;;;29.5;25.7;;;;;;;10.0;100.0;102790;;;;
2022/03/22 01:06:01;;;;;;;29.5;25.7;;;;;;;10.0;100.0;102790;;;;
2022/03/22 01:07:00;;;;;;;29.5;25.7;;;;;;;9.9;100.0;102790;;;;
2022/03/22 01:08:01;;;;;;;29.5;25.7;;;;;;;9.9;100.0;102790;;;;
2022/03/22 01:09:00;;;;;;;29.5;25.7;;;;;;;9.9;100.0;102800;;;;
2022/03/22 01:10:02;;;;;;;28.0;25.1;;;;;;;9.9;100.0;102800;;;;
2022/03/22 01:11:00;;;;;;;28.0;25.1;;;;;;;9.9;100.0;102790;;;;
2022/03/22 01:12:00;;;;;;;28.0;25.1;;;;;;;9.9;100.0;102790;;;;
2022/03/22 01:13:00;;;;;;;28.0;25.1;;;;;;;9.9;100.0;102790;;;;
2022/03/22 01:14:00;;;;;;;28.0;25.1;;;;;;;9.9;100.0;102790;;;;
2022/03/22 01:15:00;;;;;;;28.0;25.1;;;;;;;9.8;100.0;102790;;;;
2022/03/22 01:16:00;;;;;;;28.0;25.1;;;;;;;9.8;100.0;102790;;;;
2022/03/22 01:17:02;;;;;;;28.0;25.1;;;;;;;9.8;100.0;102790;;;;
2022/03/22 01:18:04;;;;;;;28.0;25.1;;;;;;;9.8;100.0;102790;;;;
2022/03/22 01:19:00;;;;;;;28.0;25.1;;;;;;;9.7;100.0;102790;;;;
2022/03/22 01:20:00;;;;;;;28.0;25.1;;;;;;;9.7;100.0;102790;;;;
2022/03/22 01:21:00;;;;;;;28.0;25.1;;;;;;;9.7;100.0;102790;;;;
2022/03/22 01:22:00;;;;;;;28.0;25.1;;;;;;;9.7;100.0;102790;;;;
2022/03/22 01:23:02;;;;;;;28.0;25.1;;;;;;;9.7;100.0;102790;;;;
2022/03/22 01:24:03;;;;;;;28.0;25.1;;;;;;;9.7;100.0;102790;;;;
2022/03/22 01:25:01;;;;;;;28.0;25.1;;;;;;;9.7;100.0;102790;;;;
2022/03/22 01:26:00;;;;;;;28.0;25.1;;;;;;;9.7;100.0;102790;;;;
2022/03/22 01:27:00;;;;;;;28.0;25.1;;;;;;;9.6;100.0;102790;;;;
2022/03/22 01:28:01;;;;;;;28.0;25.1;;;;;;;9.6;100.0;102790;;;;
2022/03/22 01:29:00;;;;;;;28.0;25.1;;;;;;;9.6;100.0;102790;;;;
2022/03/22 01:30:00;;;;;;;29.5;26.3;;;;;;;9.6;100.0;102790;;;;
2022/03/22 01:31:00;;;;;;;29.5;26.3;;;;;;;9.6;100.0;102790;;;;
2022/03/22 01:32:00;;;;;;;29.5;26.3;;;;;;;9.6;100.0;102790;;;;
2022/03/22 01:33:03;;;;;;;29.5;26.3;;;;;;;9.6;100.0;102800;;;;
2022/03/22 01:34:00;;;;;;;29.5;26.3;;;;;;;9.6;100.0;102800;;;;
2022/03/22 01:35:00;;;;;;;29.5;26.3;;;;;;;9.5;100.0;102800;;;;
2022/03/22 01:36:00;;;;;;;29.5;26.3;;;;;;;9.5;100.0;102800;;;;
2022/03/22 01:37:00;;;;;;;29.5;26.3;;;;;;;9.5;100.0;102800;;;;
2022/03/22 01:38:00;;;;;;;29.5;26.3;;;;;;;9.5;100.0;102800;;;;
2022/03/22 01:39:00;;;;;;;29.5;26.3;;;;;;;9.5;100.0;102800;;;;
2022/03/22 01:40:00;;;;;;;29.5;26.3;;;;;;;9.5;100.0;102800;;;;
2022/03/22 01:41:00;;;;;;;29.5;26.3;;;;;;;9.5;100.0;102800;;;;
2022/03/22 01:42:00;;;;;;;29.5;26.3;;;;;;;9.5;100.0;102800;;;;
2022/03/22 01:43:00;;;;;;;29.5;26.3;;;;;;;9.4;100.0;102790;;;;
2022/03/22 01:44:00;;;;;;;29.5;26.3;;;;;;;9.4;100.0;102790;;;;
2022/03/22 01:45:00;;;;;;;29.5;26.3;;;;;;;9.4;100.0;102800;;;;
2022/03/22 01:46:00;;;;;;;29.5;26.3;;;;;;;9.4;100.0;102800;;;;
2022/03/22 01:47:01;;;;;;;29.5;26.3;;;;;;;9.3;100.0;102790;;;;
2022/03/22 01:48:01;;;;;;;29.5;26.3;;;;;;;9.3;100.0;102790;;;;
2022/03/22 01:49:00;;;;;;;29.5;26.3;;;;;;;9.3;100.0;102790;;;;
2022/03/22 01:50:00;;;;;;;29.6;25.1;;;;;;;9.3;100.0;102790;;;;
2022/03/22 01:51:00;;;;;;;29.6;25.1;;;;;;;9.4;100.0;102790;;;;
2022/03/22 01:52:01;;;;;;;29.6;25.1;;;;;;;9.4;100.0;102790;;;;
2022/03/22 01:53:00;;;;;;;29.6;25.1;;;;;;;9.3;100.0;102800;;;;
2022/03/22 01:54:00;;;;;;;29.6;25.1;;;;;;;9.3;100.0;102800;;;;
2022/03/22 01:55:00;;;;;;;29.6;25.1;;;;;;;9.3;100.0;102790;;;;
2022/03/22 01:56:00;;;;;;;29.6;25.1;;;;;;;9.3;100.0;102790;;;;
2022/03/22 01:57:00;;;;;;;29.6;25.1;;;;;;;9.2;100.0;102790;;;;
2022/03/22 01:58:00;;;;;;;29.6;25.1;;;;;;;9.2;100.0;102790;;;;
2022/03/22 01:59:00;;;;;;;29.6;25.1;;;;;;;9.2;100.0;102790;;;;
2022/03/22 02:00:01;;;;;;;29.6;25.1;;;;;;;9.2;100.0;102790;;;;
2022/03/22 02:06:01;;;;;;;29.6;25.1;;;;;;;9.1;100.0;102790;;;;
2022/03/22 02:07:01;;;;;;;29.6;25.1;;;;;;;9.1;100.0;102790;;;;
2022/03/22 02:08:01;;;;;;;29.6;25.1;;;;;;;9.1;100.0;102790;;;;
2022/03/22 02:09:00;;;;;;;29.6;25.1;;;;;;;9.1;100.0;102790;;;;
2022/03/22 02:10:00;;;;;;;28.1;24.9;;;;;;;9.1;100.0;102790;;;;
2022/03/22 02:11:00;;;;;;;28.1;24.9;;;;;;;9.1;100.0;102790;;;;
2022/03/22 02:12:00;;;;;;;28.1;24.9;;;;;;;9.1;100.0;102790;;;;
2022/03/22 02:13:00;;;;;;;28.1;24.9;;;;;;;9.1;100.0;102780;;;;
2022/03/22 02:14:00;;;;;;;28.1;24.9;;;;;;;9.1;100.0;102780;;;;
2022/03/22 02:15:00;;;;;;;28.1;24.9;;;;;;;9.0;100.0;102780;;;;
2022/03/22 02:16:02;;;;;;;28.1;24.9;;;;;;;9.0;100.0;102780;;;;
2022/03/22 02:17:05;;;;;;;28.1;24.9;;;;;;;9.0;100.0;102780;;;;
2022/03/22 02:18:00;;;;;;;28.1;24.9;;;;;;;9.0;100.0;102780;;;;
2022/03/22 02:19:00;;;;;;;28.1;24.9;;;;;;;9.0;100.0;102780;;;;
2022/03/22 02:20:01;;;;;;;28.1;24.9;;;;;;;9.0;100.0;102780;;;;
2022/03/22 02:21:00;;;;;;;28.1;24.9;;;;;;;8.9;100.0;102780;;;;
2022/03/22 02:22:01;;;;;;;28.1;24.9;;;;;;;8.9;100.0;102780;;;;
2022/03/22 02:23:04;;;;;;;28.1;24.9;;;;;;;8.9;100.0;102790;;;;
2022/03/22 02:24:00;;;;;;;28.1;24.9;;;;;;;8.9;100.0;102790;;;;
2022/03/22 02:25:00;;;;;;;28.1;24.9;;;;;;;8.9;100.0;102790;;;;
2022/03/22 02:26:00;;;;;;;28.1;24.9;;;;;;;8.9;100.0;102790;;;;
2022/03/22 02:27:00;;;;;;;28.1;24.9;;;;;;;8.8;100.0;102780;;;;
2022/03/22 02:28:00;;;;;;;28.1;24.9;;;;;;;8.8;100.0;102780;;;;
2022/03/22 02:29:00;;;;;;;28.1;24.9;;;;;;;8.8;100.0;102780;;;;
2022/03/22 02:30:00;;;;;;;26.0;23.2;;;;;;;8.8;100.0;102780;;;;
2022/03/22 02:31:01;;;;;;;26.0;23.2;;;;;;;8.8;100.0;102780;;;;
2022/03/22 02:32:01;;;;;;;26.0;23.2;;;;;;;8.8;100.0;102780;;;;
2022/03/22 02:33:01;;;;;;;26.0;23.2;;;;;;;8.8;100.0;102780;;;;
2022/03/22 02:34:00;;;;;;;26.0;23.2;;;;;;;8.8;100.0;102780;;;;
2022/03/22 02:35:00;;;;;;;26.0;23.2;;;;;;;8.8;100.0;102780;;;;
2022/03/22 02:36:00;;;;;;;26.0;23.2;;;;;;;8.8;100.0;102780;;;;
2022/03/22 02:37:01;;;;;;;26.0;23.2;;;;;;;8.8;100.0;102780;;;;
2022/03/22 02:38:00;;;;;;;26.0;23.2;;;;;;;8.8;100.0;102780;;;;
2022/03/22 02:39:00;;;;;;;26.0;23.2;;;;;;;8.7;100.0;102780;;;;
2022/03/22 02:40:00;;;;;;;26.0;23.2;;;;;;;8.7;100.0;102780;;;;
2022/03/22 02:41:01;;;;;;;26.0;23.2;;;;;;;8.7;100.0;102780;;;;
2022/03/22 02:42:00;;;;;;;26.0;23.2;;;;;;;8.7;100.0;102780;;;;
2022/03/22 02:43:00;;;;;;;26.0;23.2;;;;;;;8.7;100.0;102780;;;;
2022/03/22 02:44:00;;;;;;;26.0;23.2;;;;;;;8.7;100.0;102780;;;;
2022/03/22 02:45:00;;;;;;;26.0;23.2;;;;;;;8.7;100.0;102780;;;;
2022/03/22 02:46:00;;;;;;;26.0;23.2;;;;;;;8.7;100.0;102780;;;;
2022/03/22 02:47:00;;;;;;;26.0;23.2;;;;;;;8.7;100.0;102780;;;;
2022/03/22 02:48:00;;;;;;;26.0;23.2;;;;;;;8.7;100.0;102780;;;;
2022/03/22 02:49:00;;;;;;;26.0;23.2;;;;;;;8.6;100.0;102780;;;;
2022/03/22 02:50:00;;;;;;;26.2;22.5;;;;;;;8.6;100.0;102780;;;;
2022/03/22 02:51:00;;;;;;;26.2;22.5;;;;;;;8.7;100.0;102780;;;;
2022/03/22 02:52:00;;;;;;;26.2;22.5;;;;;;;8.7;100.0;102780;;;;
2022/03/22 02:53:01;;;;;;;26.2;22.5;;;;;;;8.6;100.0;102780;;;;
2022/03/22 02:54:00;;;;;;;26.2;22.5;;;;;;;8.6;100.0;102780;;;;
2022/03/22 02:55:00;;;;;;;26.2;22.5;;;;;;;8.6;100.0;102780;;;;
2022/03/22 02:56:01;;;;;;;26.2;22.5;;;;;;;8.6;100.0;102780;;;;
2022/03/22 02:57:00;;;;;;;26.2;22.5;;;;;;;8.6;100.0;102780;;;;
2022/03/22 02:58:00;;;;;;;26.2;22.5;;;;;;;8.6;100.0;102780;;;;
2022/03/22 02:59:02;;;;;;;26.2;22.5;;;;;;;8.6;100.0;102780;;;;
2022/03/22 03:00:02;;;;;;;26.2;22.5;;;;;;;8.6;100.0;102780;;;;
2022/03/22 03:01:02;;;;;;;26.2;22.5;;;;;;;8.5;100.0;102780;;;;
2022/03/22 03:02:01;;;;;;;26.2;22.5;;;;;;;8.5;100.0;102780;;;;
2022/03/22 03:03:01;;;;;;;26.2;22.5;;;;;;;8.5;100.0;102780;;;;
2022/03/22 03:04:01;;;;;;;26.2;22.5;;;;;;;8.5;100.0;102780;;;;
2022/03/22 03:05:00;;;;;;;26.2;22.5;;;;;;;8.5;100.0;102780;;;;
2022/03/22 03:06:00;;;;;;;26.2;22.5;;;;;;;8.5;100.0;102780;;;;
2022/03/22 03:07:00;;;;;;;26.2;22.5;;;;;;;8.5;100.0;102780;;;;
2022/03/22 03:08:00;;;;;;;26.2;22.5;;;;;;;8.5;100.0;102780;;;;
2022/03/22 03:09:00;;;;;;;26.2;22.5;;;;;;;8.5;100.0;102780;;;;
2022/03/22 03:10:00;;;;;;;29.4;23.0;;;;;;;8.5;100.0;102780;;;;
2022/03/22 03:11:00;;;;;;;29.4;23.0;;;;;;;8.5;100.0;102780;;;;
2022/03/22 03:12:00;;;;;;;29.4;23.0;;;;;;;8.5;100.0;102780;;;;
2022/03/22 03:13:01;;;;;;;29.4;23.0;;;;;;;8.4;100.0;102790;;;;
2022/03/22 03:15:00;;;;;;;29.4;23.0;;;;;;;8.4;100.0;102780;;;;
2022/03/22 03:16:00;;;;;;;29.4;23.0;;;;;;;8.4;100.0;102780;;;;
2022/03/22 03:17:00;;;;;;;29.4;23.0;;;;;;;8.4;100.0;102790;;;;
2022/03/22 03:18:00;;;;;;;29.4;23.0;;;;;;;8.4;100.0;102790;;;;
2022/03/22 03:19:00;;;;;;;29.4;23.0;;;;;;;8.3;100.0;102790;;;;
2022/03/22 03:20:00;;;;;;;29.4;23.0;;;;;;;8.3;100.0;102790;;;;
2022/03/22 03:21:00;;;;;;;29.4;23.0;;;;;;;8.3;100.0;102790;;;;
2022/03/22 03:22:00;;;;;;;29.4;23.0;;;;;;;8.3;100.0;102790;;;;
2022/03/22 03:23:00;;;;;;;29.4;23.0;;;;;;;8.3;100.0;102790;;;;
2022/03/22 03:24:00;;;;;;;29.4;23.0;;;;;;;8.3;100.0;102790;;;;
2022/03/22 03:25:00;;;;;;;29.4;23.0;;;;;;;8.3;100.0;102790;;;;
2022/03/22 03:26:00;;;;;;;29.4;23.0;;;;;;;8.3;100.0;102790;;;;
2022/03/22 03:27:00;;;;;;;29.4;23.0;;;;;;;8.2;100.0;102790;;;;
2022/03/22 03:28:00;;;;;;;29.4;23.0;;;;;;;8.2;100.0;102790;;;;
2022/03/22 03:29:00;;;;;;;29.4;23.0;;;;;;;8.2;100.0;102790;;;;
2022/03/22 03:30:00;;;;;;;24.3;21.7;;;;;;;8.2;100.0;102790;;;;
2022/03/22 03:31:00;;;;;;;24.3;21.7;;;;;;;8.2;100.0;102790;;;;
2022/03/22 03:32:00;;;;;;;24.3;21.7;;;;;;;8.2;100.0;102790;;;;
2022/03/22 03:33:00;;;;;;;24.3;21.7;;;;;;;8.2;100.0;102790;;;;
2022/03/22 03:34:00;;;;;;;24.3;21.7;;;;;;;8.2;100.0;102790;;;;
2022/03/22 03:35:00;;;;;;;24.3;21.7;;;;;;;8.2;100.0;102790;;;;
2022/03/22 03:36:00;;;;;;;24.3;21.7;;;;;;;8.2;100.0;102790;;;;
2022/03/22 03:37:00;;;;;;;24.3;21.7;;;;;;;8.2;100.0;102800;;;;
2022/03/22 03:38:00;;;;;;;24.3;21.7;;;;;;;8.2;100.0;102800;;;;
2022/03/22 03:39:02;;;;;;;24.3;21.7;;;;;;;8.2;100.0;102800;;;;
2022/03/22 03:40:00;;;;;;;24.3;21.7;;;;;;;8.2;100.0;102800;;;;
2022/03/22 03:42:02;;;;;;;24.3;21.7;;;;;;;8.2;100.0;102800;;;;
2022/03/22 03:43:00;;;;;;;24.3;21.7;;;;;;;8.1;100.0;102800;;;;
2022/03/22 03:47:03;;;;;;;24.3;21.7;;;;;;;8.1;100.0;102800;;;;
2022/03/22 03:47:03;;;;;;;24.3;21.7;;;;;;;8.1;100.0;102800;;;;
2022/03/22 03:48:00;;;;;;;24.3;21.7;;;;;;;8.1;100.0;102800;;;;
2022/03/22 03:49:02;;;;;;;25.6;22.9;;;;;;;8.1;100.0;102800;;;;
2022/03/22 03:50:03;;;;;;;25.6;22.9;;;;;;;8.1;100.0;102800;;;;
2022/03/22 03:51:00;;;;;;;25.6;22.9;;;;;;;8.1;100.0;102810;;;;
2022/03/22 03:52:00;;;;;;;25.6;22.9;;;;;;;8.1;100.0;102810;;;;
2022/03/22 03:53:00;;;;;;;25.6;22.9;;;;;;;8.1;100.0;102810;;;;
2022/03/22 03:54:00;;;;;;;25.6;22.9;;;;;;;8.1;100.0;102810;;;;
2022/03/22 03:55:00;;;;;;;25.6;22.9;;;;;;;8.0;100.0;102810;;;;
2022/03/22 03:56:00;;;;;;;25.6;22.9;;;;;;;8.0;100.0;102810;;;;
2022/03/22 03:57:00;;;;;;;25.6;22.9;;;;;;;8.0;100.0;102810;;;;
2022/03/22 03:58:00;;;;;;;25.6;22.9;;;;;;;8.0;100.0;102810;;;;
2022/03/22 03:59:00;;;;;;;25.6;22.9;;;;;;;8.0;100.0;102810;;;;
2022/03/22 04:00:00;;;;;;;25.6;22.9;;;;;;;8.0;100.0;102810;;;;
2022/03/22 04:01:01;;;;;;;25.6;22.9;;;;;;;7.9;100.0;102810;;;;
2022/03/22 04:02:01;;;;;;;25.6;22.9;;;;;;;7.9;100.0;102810;;;;
2022/03/22 04:03:00;;;;;;;25.6;22.9;;;;;;;7.9;100.0;102810;;;;
2022/03/22 04:04:00;;;;;;;25.6;22.9;;;;;;;7.9;100.0;102810;;;;
2022/03/22 04:05:00;;;;;;;25.6;22.9;;;;;;;7.9;100.0;102810;;;;
2022/03/22 04:06:00;;;;;;;25.6;22.9;;;;;;;7.9;100.0;102810;;;;
2022/03/22 04:07:00;;;;;;;25.6;22.9;;;;;;;7.9;100.0;102810;;;;
2022/03/22 04:08:00;;;;;;;25.6;22.9;;;;;;;7.9;100.0;102810;;;;
2022/03/22 04:09:00;;;;;;;26.6;23.7;;;;;;;7.9;100.0;102810;;;;
2022/03/22 04:10:00;;;;;;;26.6;23.7;;;;;;;7.9;100.0;102810;;;;
2022/03/22 04:11:00;;;;;;;26.6;23.7;;;;;;;7.8;100.0;102810;;;;
2022/03/22 04:12:00;;;;;;;26.6;23.7;;;;;;;7.8;100.0;102810;;;;
2022/03/22 04:13:00;;;;;;;26.6;23.7;;;;;;;7.8;100.0;102810;;;;
2022/03/22 04:14:00;;;;;;;26.6;23.7;;;;;;;7.8;100.0;102810;;;;
2022/03/22 04:15:00;;;;;;;26.6;23.7;;;;;;;7.8;100.0;102820;;;;
2022/03/22 04:16:00;;;;;;;26.6;23.7;;;;;;;7.8;100.0;102820;;;;
2022/03/22 04:17:00;;;;;;;26.6;23.7;;;;;;;7.8;100.0;102820;;;;
2022/03/22 04:18:00;;;;;;;26.6;23.7;;;;;;;7.8;100.0;102820;;;;
2022/03/22 04:19:00;;;;;;;26.6;23.7;;;;;;;7.7;100.0;102820;;;;
2022/03/22 04:20:00;;;;;;;26.6;23.7;;;;;;;7.7;100.0;102820;;;;
2022/03/22 04:21:00;;;;;;;26.6;23.7;;;;;;;7.7;100.0;102820;;;;
2022/03/22 04:22:00;;;;;;;26.6;23.7;;;;;;;7.7;100.0;102820;;;;
2022/03/22 04:23:00;;;;;;;26.6;23.7;;;;;;;7.7;100.0;102820;;;;
2022/03/22 04:24:06;;;;;;;26.6;23.7;;;;;;;7.7;100.0;102820;;;;
2022/03/22 04:25:00;;;;;;;26.6;23.7;;;;;;;7.7;100.0;102820;;;;
2022/03/22 04:26:00;;;;;;;26.6;23.7;;;;;;;7.7;100.0;102820;;;;
2022/03/22 04:33:00;;;;;;;25.3;22.7;;;;;;;7.6;100.0;102820;;;;
2022/03/22 04:34:01;;;;;;;25.3;22.7;;;;;;;7.6;100.0;102820;;;;
2022/03/22 04:35:00;;;;;;;25.3;22.7;;;;;;;7.6;100.0;102820;;;;
2022/03/22 04:36:00;;;;;;;25.3;22.7;;;;;;;7.6;100.0;102820;;;;
2022/03/22 04:37:00;;;;;;;25.3;22.7;;;;;;;7.6;100.0;102820;;;;
2022/03/22 04:38:00;;;;;;;25.3;22.7;;;;;;;7.6;100.0;102820;;;;
2022/03/22 04:39:00;;;;;;;25.3;22.7;;;;;;;7.5;100.0;102820;;;;
2022/03/22 04:40:00;;;;;;;25.3;22.7;;;;;;;7.5;100.0;102820;;;;
2022/03/22 04:41:00;;;;;;;25.3;22.7;;;;;;;7.5;100.0;102820;;;;
2022/03/22 04:42:00;;;;;;;25.3;22.7;;;;;;;7.5;100.0;102820;;;;
2022/03/22 04:43:00;;;;;;;25.3;22.7;;;;;;;7.5;100.0;102820;;;;
2022/03/22 04:44:01;;;;;;;25.3;22.7;;;;;;;7.5;100.0;102820;;;;
2022/03/22 04:45:00;;;;;;;25.3;22.7;;;;;;;7.5;100.0;102830;;;;
2022/03/22 04:46:01;;;;;;;25.3;22.7;;;;;;;7.5;100.0;102830;;;;
2022/03/22 04:47:00;;;;;;;25.3;22.7;;;;;;;7.4;100.0;102820;;;;
2022/03/22 04:48:00;;;;;;;25.3;22.7;;;;;;;7.4;100.0;102820;;;;
2022/03/22 04:49:00;;;;;;;25.8;23.1;;;;;;;7.5;100.0;102820;;;;
2022/03/22 04:50:00;;;;;;;25.8;23.1;;;;;;;7.5;100.0;102820;;;;
2022/03/22 04:57:02;;;;;;;25.8;23.1;;;;;;;7.3;100.0;102830;;;;
2022/03/22 04:58:00;;;;;;;25.8;23.1;;;;;;;7.3;100.0;102830;;;;
2022/03/22 04:59:00;;;;;;;25.8;23.1;;;;;;;7.3;100.0;102830;;;;
2022/03/22 05:00:00;;;;;;;25.8;23.1;;;;;;;7.3;100.0;102830;;;;
2022/03/22 05:01:00;;;;;;;25.8;23.1;;;;;;;7.3;100.0;102840;;;;
2022/03/22 05:02:00;;;;;;;25.8;23.1;;;;;;;7.3;100.0;102840;;;;
2022/03/22 05:03:00;;;;;;;25.8;23.1;;;;;;;7.3;100.0;102840;;;;
2022/03/22 05:04:00;;;;;;;25.8;23.1;;;;;;;7.3;100.0;102840;;;;
2022/03/22 05:05:00;;;;;;;25.8;23.1;;;;;;;7.3;100.0;102840;;;;
2022/03/22 05:07:00;;;;;;;25.8;23.1;;;;;;;7.2;100.0;102840;;;;
2022/03/22 05:08:00;;;;;;;25.8;23.1;;;;;;;7.2;100.0;102840;;;;
2022/03/22 05:09:00;;;;;;;30.0;25.0;;;;;;;7.3;100.0;102840;;;;
2022/03/22 05:10:00;;;;;;;30.0;25.0;;;;;;;7.3;100.0;102840;;;;
2022/03/22 05:11:00;;;;;;;30.0;25.0;;;;;;;7.2;100.0;102840;;;;
2022/03/22 05:12:00;;;;;;;30.0;25.0;;;;;;;7.2;100.0;102840;;;;
2022/03/22 05:13:00;;;;;;;30.0;25.0;;;;;;;7.2;100.0;102840;;;;
2022/03/22 05:14:00;;;;;;;30.0;25.0;;;;;;;7.2;100.0;102840;;;;
2022/03/22 05:15:00;;;;;;;30.0;25.0;;;;;;;7.2;100.0;102840;;;;
2022/03/22 05:16:00;;;;;;;30.0;25.0;;;;;;;7.2;100.0;102840;;;;
2022/03/22 05:17:00;;;;;;;30.0;25.0;;;;;;;7.2;100.0;102840;;;;
2022/03/22 05:18:01;;;;;;;30.0;25.0;;;;;;;7.2;100.0;102840;;;;
2022/03/22 05:19:00;;;;;;;30.0;25.0;;;;;;;7.1;100.0;102850;;;;
2022/03/22 05:20:00;;;;;;;30.0;25.0;;;;;;;7.1;100.0;102850;;;;
2022/03/22 05:21:04;;;;;;;30.0;25.0;;;;;;;7.1;100.0;102850;;;;
2022/03/22 05:22:01;;;;;;;30.0;25.0;;;;;;;7.1;100.0;102850;;;;
2022/03/22 05:23:00;;;;;;;30.0;25.0;;;;;;;7.1;100.0;102860;;;;
2022/03/22 05:24:00;;;;;;;30.0;25.0;;;;;;;7.1;100.0;102860;;;;
2022/03/22 05:25:00;;;;;;;30.0;25.0;;;;;;;7.1;100.0;102860;;;;
2022/03/22 05:26:00;;;;;;;30.0;25.0;;;;;;;7.1;100.0;102860;;;;
2022/03/22 05:27:02;;;;;;;30.0;25.0;;;;;;;7.1;100.0;102860;;;;
2022/03/22 05:28:02;;;;;;;30.0;25.0;;;;;;;7.1;100.0;102860;;;;
2022/03/22 05:29:01;;;;;;;29.5;24.8;;;;;;;7.1;100.0;102860;;;;
2022/03/22 05:30:00;;;;;;;29.5;24.8;;;;;;;7.1;100.0;102860;;;;
2022/03/22 05:31:00;;;;;;;29.5;24.8;;;;;;;7.1;100.0;102860;;;;
2022/03/22 05:32:00;;;;;;;29.5;24.8;;;;;;;7.1;100.0;102860;;;;
2022/03/22 05:33:00;;;;;;;29.5;24.8;;;;;;;7.1;100.0;102860;;;;
2022/03/22 05:34:00;;;;;;;29.5;24.8;;;;;;;7.1;100.0;102860;;;;
2022/03/22 05:35:00;;;;;;;29.5;24.8;;;;;;;7.0;100.0;102860;;;;
2022/03/22 05:36:00;;;;;;;29.5;24.8;;;;;;;7.0;100.0;102860;;;;
2022/03/22 05:37:00;;;;;;;29.5;24.8;;;;;;;7.0;100.0;102860;;;;
2022/03/22 05:38:00;;;;;;;29.5;24.8;;;;;;;7.0;100.0;102860;;;;
2022/03/22 05:39:00;;;;;;;29.5;24.8;;;;;;;7.0;100.0;102870;;;;
2022/03/22 05:40:00;;;;;;;29.5;24.8;;;;;;;7.0;100.0;102870;;;;
2022/03/22 05:41:03;;;;;;;29.5;24.8;;;;;;;7.0;100.0;102870;;;;
2022/03/22 05:42:00;;;;;;;29.5;24.8;;;;;;;7.0;100.0;102870;;;;
2022/03/22 05:43:00;;;;;;;29.5;24.8;;;;;;;7.0;100.0;102870;;;;
2022/03/22 05:44:00;;;;;;;29.5;24.8;;;;;;;7.0;100.0;102870;;;;
2022/03/22 05:45:00;;;;;;;29.5;24.8;;;;;;;7.0;100.0;102870;;;;
2022/03/22 05:46:00;;;;;;;29.5;24.8;;;;;;;7.0;100.0;102870;;;;
2022/03/22 05:47:00;;;;;;;29.5;24.8;;;;;;;7.0;100.0;102870;;;;
2022/03/22 05:48:01;;;;;;;29.5;24.8;;;;;;;7.0;100.0;102870;;;;
2022/03/22 05:49:00;;;;;;;29.7;25.8;;;;;;;7.0;100.0;102870;;;;
2022/03/22 05:50:00;;;;;;;29.7;25.8;;;;;;;7.0;100.0;102870;;;;
2022/03/22 05:51:00;;;;;;;29.7;25.8;;;;;;;7.0;100.0;102870;;;;
2022/03/22 05:52:00;;;;;;;29.7;25.8;;;;;;;7.0;100.0;102870;;;;
2022/03/22 05:53:00;;;;;;;29.7;25.8;;;;;;;7.0;100.0;102870;;;;
2022/03/22 05:54:00;;;;;;;29.7;25.8;;;;;;;7.0;100.0;102870;;;;
2022/03/22 05:55:00;;;;;;;29.7;25.8;;;;;;;7.0;100.0;102870;;;;
2022/03/22 05:56:00;;;;;;;29.7;25.8;;;;;;;7.0;100.0;102870;;;;
2022/03/22 05:57:00;;;;;;;29.7;25.8;;;;;;;7.0;100.0;102870;;;;
2022/03/22 05:58:00;;;;;;;29.7;25.8;;;;;;;7.0;100.0;102870;;;;
2022/03/22 05:59:00;;;;;;;29.7;25.8;;;;;;;7.0;100.0;102870;;;;
2022/03/22 06:00:00;;;;;;;29.7;25.8;;;;;;;7.0;100.0;102870;;;;
2022/03/22 06:01:00;;;;;;;29.7;25.8;;;;;;;6.9;100.0;102860;;;;
2022/03/22 06:02:00;;;;;;;29.7;25.8;;;;;;;6.9;100.0;102860;;;;
2022/03/22 06:03:00;;;;;;;29.7;25.8;;;;;;;7.0;100.0;102870;;;;
2022/03/22 06:04:00;;;;;;;29.7;25.8;;;;;;;7.0;100.0;102870;;;;
2022/03/22 06:05:00;;;;;;;29.7;25.8;;;;;;;6.9;100.0;102870;;;;
2022/03/22 06:06:00;;;;;;;29.7;25.8;;;;;;;6.9;100.0;102870;;;;
2022/03/22 06:07:00;;;;;;;29.7;25.8;;;;;;;6.9;100.0;102870;;;;
2022/03/22 06:08:00;;;;;;;29.7;25.8;;;;;;;6.9;100.0;102870;;;;
2022/03/22 06:09:00;;;;;;;30.6;25.4;;;;;;;6.9;100.0;102870;;;;
2022/03/22 06:10:00;;;;;;;30.6;25.4;;;;;;;6.9;100.0;102870;;;;
2022/03/22 06:11:00;;;;;;;30.6;25.4;;;;;;;6.9;100.0;102870;;;;
2022/03/22 06:12:00;;;;;;;30.6;25.4;;;;;;;6.9;100.0;102870;;;;
2022/03/22 06:13:00;;;;;;;30.6;25.4;;;;;;;6.9;100.0;102870;;;;
2022/03/22 06:14:00;;;;;;;30.6;25.4;;;;;;;6.9;100.0;102870;;;;
2022/03/22 06:16:00;;;;;;;30.6;25.4;;;;;;;6.9;100.0;102870;;;;
2022/03/22 06:17:00;;;;;;;30.6;25.4;;;;;;;6.9;100.0;102880;;;;
2022/03/22 06:18:01;;;;;;;30.6;25.4;;;;;;;6.9;100.0;102880;;;;
2022/03/22 06:19:00;;;;;;;30.6;25.4;;;;;;;6.9;100.0;102880;;;;
2022/03/22 06:20:01;;;;;;;30.6;25.4;;;;;;;6.9;100.0;102880;;;;
2022/03/22 06:21:00;;;;;;;30.6;25.4;;;;;;;7.0;100.0;102880;;;;
2022/03/22 06:22:00;;;;;;;30.6;25.4;;;;;;;7.0;100.0;102880;;;;
2022/03/22 06:23:01;;;;;;;30.6;25.4;;;;;;;7.0;100.0;102880;;;;
2022/03/22 06:24:00;;;;;;;30.6;25.4;;;;;;;7.0;100.0;102880;;;;
2022/03/22 06:25:00;;;;;;;30.6;25.4;;;;;;;7.0;100.0;102880;;;;
2022/03/22 06:26:01;;;;;;;30.6;25.4;;;;;;;7.0;100.0;102880;;;;
2022/03/22 06:27:00;;;;;;;30.6;25.4;;;;;;;7.0;100.0;102880;;;;
2022/03/22 06:28:00;;;;;;;30.6;25.4;;;;;;;7.0;100.0;102880;;;;
2022/03/22 06:29:00;;;;;;;29.3;25.2;;;;;;;7.1;100.0;102880;;;;
2022/03/22 06:30:00;;;;;;;29.3;25.2;;;;;;;7.1;100.0;102880;;;;
2022/03/22 06:31:00;;;;;;;29.3;25.2;;;;;;;7.2;100.0;102880;;;;
2022/03/22 06:32:00;;;;;;;29.3;25.2;;;;;;;7.2;100.0;102880;;;;
2022/03/22 06:33:01;;;;;;;29.3;25.2;;;;;;;7.2;100.0;102880;;;;
2022/03/22 06:34:01;;;;;;;29.3;25.2;;;;;;;7.2;100.0;102880;;;;
2022/03/22 06:35:00;;;;;;;29.3;25.2;;;;;;;7.2;100.0;102880;;;;
2022/03/22 06:36:00;;;;;;;29.3;25.2;;;;;;;7.2;100.0;102880;;;;
2022/03/22 06:37:00;;;;;;;29.3;25.2;;;;;;;7.3;100.0;102880;;;;
2022/03/22 06:38:01;;;;;;;29.3;25.2;;;;;;;7.3;100.0;102880;;;;
2022/03/22 06:39:00;;;;;;;29.3;25.2;;;;;;;7.3;100.0;102890;;;;